KLOR/LOR METAR and TAF weather

Enter ICAO airport designator
Station Type Date Time Source
KLOR METAR 2019/06/18 04:58 UTC NOAA

KLOR 180458Z AUTO 00000KT 10SM CLR 24/23 A3001 RMK AO2 RAB01E17 SLP143 P0000 T02360228


Station Type Date Time Source
KLOR Decoded METAR 2019/06/18 04:58 UTC NOAA

Fort Rucker, Lowe Army Heliport, AL, United States (KLOR) 31-21-32N 085-44-54W 93M
Jun 18, 2019 - 12:58 AM EDT / 2019.06.18 0458 UTC
Wind: Calm:0
Visibility: 10 mile(s):0
Sky conditions: clear
Precipitation last hour: A trace
Temperature: 74.5 F (23.6 C)
Dew Point: 73.0 F (22.8 C)
Relative Humidity: 95%
Pressure (altimeter): 30.01 in. Hg (1016 hPa)
ob: KLOR 180458Z AUTO 00000KT 10SM CLR 24/23 A3001 RMK AO2 RAB01E17 SLP143 P0000 T02360228
cycle: 5

Station Type Date Time Source
KLOR TAF UTC NOAA

Error!

Example: see airport list